sensor_id;sensor_type;location;lat;lon;timestamp;P1;durP1;ratioP1;P2;durP2;ratioP2
13048;SDS011;6591;51.446;5.404;2023-12-14T00:00:05;24.60;;;16.93;;
13048;SDS011;6591;51.446;5.404;2023-12-14T00:02:34;26.17;;;18.13;;
13048;SDS011;6591;51.446;5.404;2023-12-14T00:05:02;23.77;;;17.07;;
13048;SDS011;6591;51.446;5.404;2023-12-14T00:07:29;27.03;;;17.33;;
13048;SDS011;6591;51.446;5.404;2023-12-14T00:09:56;26.07;;;18.47;;
13048;SDS011;6591;51.446;5.404;2023-12-14T00:12:24;23.87;;;17.93;;
13048;SDS011;6591;51.446;5.404;2023-12-14T00:14:51;23.03;;;16.40;;
13048;SDS011;6591;51.446;5.404;2023-12-14T00:17:18;21.20;;;15.03;;
13048;SDS011;6591;51.446;5.404;2023-12-14T00:19:45;21.00;;;16.00;;
13048;SDS011;6591;51.446;5.404;2023-12-14T00:22:12;19.93;;;14.63;;
13048;SDS011;6591;51.446;5.404;2023-12-14T00:24:39;19.27;;;14.87;;
13048;SDS011;6591;51.446;5.404;2023-12-14T00:27:06;16.73;;;13.07;;
13048;SDS011;6591;51.446;5.404;2023-12-14T00:29:33;16.13;;;12.87;;
13048;SDS011;6591;51.446;5.404;2023-12-14T00:32:00;19.00;;;14.03;;
13048;SDS011;6591;51.446;5.404;2023-12-14T00:34:27;17.40;;;13.87;;
13048;SDS011;6591;51.446;5.404;2023-12-14T00:36:54;14.40;;;12.17;;
13048;SDS011;6591;51.446;5.404;2023-12-14T00:39:21;14.13;;;11.63;;
13048;SDS011;6591;51.446;5.404;2023-12-14T00:41:48;15.60;;;12.37;;
13048;SDS011;6591;51.446;5.404;2023-12-14T00:44:15;15.47;;;12.53;;
13048;SDS011;6591;51.446;5.404;2023-12-14T00:46:42;16.70;;;13.30;;
13048;SDS011;6591;51.446;5.404;2023-12-14T00:49:09;15.73;;;13.00;;
13048;SDS011;6591;51.446;5.404;2023-12-14T00:51:36;15.30;;;12.67;;
13048;SDS011;6591;51.446;5.404;2023-12-14T00:54:04;15.60;;;13.10;;
13048;SDS011;6591;51.446;5.404;2023-12-14T00:56:31;17.30;;;13.77;;
13048;SDS011;6591;51.446;5.404;2023-12-14T00:58:58;19.37;;;13.70;;
13048;SDS011;6591;51.446;5.404;2023-12-14T01:01:25;19.03;;;15.23;;
13048;SDS011;6591;51.446;5.404;2023-12-14T01:03:52;19.93;;;14.60;;
13048;SDS011;6591;51.446;5.404;2023-12-14T01:06:19;19.17;;;13.63;;
13048;SDS011;6591;51.446;5.404;2023-12-14T01:08:46;19.60;;;14.97;;
13048;SDS011;6591;51.446;5.404;2023-12-14T01:11:14;21.37;;;15.17;;
13048;SDS011;6591;51.446;5.404;2023-12-14T01:13:41;23.57;;;16.30;;
13048;SDS011;6591;51.446;5.404;2023-12-14T01:16:08;23.70;;;16.80;;
13048;SDS011;6591;51.446;5.404;2023-12-14T01:18:35;22.83;;;16.17;;
13048;SDS011;6591;51.446;5.404;2023-12-14T01:21:03;21.37;;;15.00;;
13048;SDS011;6591;51.446;5.404;2023-12-14T01:23:31;22.33;;;15.90;;
13048;SDS011;6591;51.446;5.404;2023-12-14T01:25:58;25.13;;;16.10;;
13048;SDS011;6591;51.446;5.404;2023-12-14T01:28:25;21.13;;;15.37;;
13048;SDS011;6591;51.446;5.404;2023-12-14T01:30:52;22.90;;;16.13;;
13048;SDS011;6591;51.446;5.404;2023-12-14T01:33:20;22.07;;;15.70;;
13048;SDS011;6591;51.446;5.404;2023-12-14T01:35:47;23.17;;;16.27;;
13048;SDS011;6591;51.446;5.404;2023-12-14T01:38:14;21.23;;;15.13;;
13048;SDS011;6591;51.446;5.404;2023-12-14T01:40:41;20.17;;;14.40;;
13048;SDS011;6591;51.446;5.404;2023-12-14T01:43:08;19.27;;;14.10;;
13048;SDS011;6591;51.446;5.404;2023-12-14T01:45:38;19.37;;;14.73;;
13048;SDS011;6591;51.446;5.404;2023-12-14T01:48:05;20.67;;;14.83;;
13048;SDS011;6591;51.446;5.404;2023-12-14T01:50:33;19.13;;;13.53;;
13048;SDS011;6591;51.446;5.404;2023-12-14T01:53:00;18.47;;;13.77;;
13048;SDS011;6591;51.446;5.404;2023-12-14T01:55:27;17.20;;;12.97;;
13048;SDS011;6591;51.446;5.404;2023-12-14T01:57:54;17.10;;;12.43;;
13048;SDS011;6591;51.446;5.404;2023-12-14T02:00:34;16.00;;;12.60;;
13048;SDS011;6591;51.446;5.404;2023-12-14T02:09:13;17.30;;;12.83;;
13048;SDS011;6591;51.446;5.404;2023-12-14T02:11:40;19.83;;;13.50;;
13048;SDS011;6591;51.446;5.404;2023-12-14T02:14:11;16.77;;;11.47;;
13048;SDS011;6591;51.446;5.404;2023-12-14T02:16:39;18.87;;;13.40;;
13048;SDS011;6591;51.446;5.404;2023-12-14T02:19:06;16.37;;;12.20;;
13048;SDS011;6591;51.446;5.404;2023-12-14T02:21:33;15.50;;;11.80;;
13048;SDS011;6591;51.446;5.404;2023-12-14T02:24:00;14.50;;;11.03;;
13048;SDS011;6591;51.446;5.404;2023-12-14T02:26:27;14.60;;;11.97;;
13048;SDS011;6591;51.446;5.404;2023-12-14T02:28:54;14.73;;;11.70;;
13048;SDS011;6591;51.446;5.404;2023-12-14T02:31:21;16.67;;;12.30;;
13048;SDS011;6591;51.446;5.404;2023-12-14T02:33:49;15.20;;;11.37;;
13048;SDS011;6591;51.446;5.404;2023-12-14T02:36:17;16.90;;;11.77;;
13048;SDS011;6591;51.446;5.404;2023-12-14T02:38:44;13.53;;;10.83;;
13048;SDS011;6591;51.446;5.404;2023-12-14T02:41:11;12.97;;;10.80;;
13048;SDS011;6591;51.446;5.404;2023-12-14T02:43:38;15.20;;;11.03;;
13048;SDS011;6591;51.446;5.404;2023-12-14T02:46:07;16.37;;;12.10;;
13048;SDS011;6591;51.446;5.404;2023-12-14T02:48:35;16.23;;;11.93;;
13048;SDS011;6591;51.446;5.404;2023-12-14T02:51:02;14.37;;;10.83;;
13048;SDS011;6591;51.446;5.404;2023-12-14T02:53:30;17.00;;;12.17;;
13048;SDS011;6591;51.446;5.404;2023-12-14T02:56:00;15.73;;;11.43;;
13048;SDS011;6591;51.446;5.404;2023-12-14T02:58:28;14.97;;;10.53;;
13048;SDS011;6591;51.446;5.404;2023-12-14T03:00:55;12.97;;;10.80;;
13048;SDS011;6591;51.446;5.404;2023-12-14T03:03:22;18.53;;;13.53;;
13048;SDS011;6591;51.446;5.404;2023-12-14T03:05:50;18.17;;;13.73;;
13048;SDS011;6591;51.446;5.404;2023-12-14T03:08:17;19.20;;;13.73;;
13048;SDS011;6591;51.446;5.404;2023-12-14T03:10:44;16.43;;;13.27;;
13048;SDS011;6591;51.446;5.404;2023-12-14T03:13:11;17.00;;;13.33;;
13048;SDS011;6591;51.446;5.404;2023-12-14T03:15:38;17.10;;;12.60;;
13048;SDS011;6591;51.446;5.404;2023-12-14T03:18:05;17.60;;;12.23;;
13048;SDS011;6591;51.446;5.404;2023-12-14T03:20:32;15.40;;;12.00;;
13048;SDS011;6591;51.446;5.404;2023-12-14T03:22:59;17.33;;;12.57;;
13048;SDS011;6591;51.446;5.404;2023-12-14T03:25:26;17.23;;;12.13;;
13048;SDS011;6591;51.446;5.404;2023-12-14T03:27:54;17.07;;;12.47;;
13048;SDS011;6591;51.446;5.404;2023-12-14T03:30:21;15.10;;;11.83;;
13048;SDS011;6591;51.446;5.404;2023-12-14T03:32:48;15.93;;;12.70;;
13048;SDS011;6591;51.446;5.404;2023-12-14T03:35:15;14.47;;;11.37;;
13048;SDS011;6591;51.446;5.404;2023-12-14T03:37:42;15.50;;;12.60;;
13048;SDS011;6591;51.446;5.404;2023-12-14T03:40:09;17.77;;;13.33;;
13048;SDS011;6591;51.446;5.404;2023-12-14T03:42:37;17.97;;;14.23;;
13048;SDS011;6591;51.446;5.404;2023-12-14T03:45:04;19.60;;;14.47;;
13048;SDS011;6591;51.446;5.404;2023-12-14T03:47:32;19.73;;;14.00;;
13048;SDS011;6591;51.446;5.404;2023-12-14T03:49:58;18.80;;;14.03;;
13048;SDS011;6591;51.446;5.404;2023-12-14T03:52:26;17.53;;;14.57;;
13048;SDS011;6591;51.446;5.404;2023-12-14T03:54:54;18.90;;;14.67;;
13048;SDS011;6591;51.446;5.404;2023-12-14T03:57:21;19.63;;;14.77;;
13048;SDS011;6591;51.446;5.404;2023-12-14T03:59:48;19.53;;;14.10;;
13048;SDS011;6591;51.446;5.404;2023-12-14T04:02:15;18.63;;;14.40;;
13048;SDS011;6591;51.446;5.404;2023-12-14T04:04:42;17.63;;;13.93;;
13048;SDS011;6591;51.446;5.404;2023-12-14T04:07:09;17.40;;;13.83;;
13048;SDS011;6591;51.446;5.404;2023-12-14T04:09:36;17.70;;;14.07;;
13048;SDS011;6591;51.446;5.404;2023-12-14T04:12:04;17.33;;;14.07;;
13048;SDS011;6591;51.446;5.404;2023-12-14T04:14:31;17.83;;;13.70;;
13048;SDS011;6591;51.446;5.404;2023-12-14T04:16:58;15.43;;;13.43;;
13048;SDS011;6591;51.446;5.404;2023-12-14T04:19:25;18.53;;;13.93;;
13048;SDS011;6591;51.446;5.404;2023-12-14T04:21:52;17.43;;;13.77;;
13048;SDS011;6591;51.446;5.404;2023-12-14T04:24:19;19.10;;;14.80;;
13048;SDS011;6591;51.446;5.404;2023-12-14T04:26:48;18.17;;;14.50;;
13048;SDS011;6591;51.446;5.404;2023-12-14T04:29:15;17.97;;;14.33;;
13048;SDS011;6591;51.446;5.404;2023-12-14T04:31:42;19.40;;;14.93;;
13048;SDS011;6591;51.446;5.404;2023-12-14T04:34:09;17.00;;;13.60;;
13048;SDS011;6591;51.446;5.404;2023-12-14T04:36:41;19.00;;;14.00;;
13048;SDS011;6591;51.446;5.404;2023-12-14T04:39:09;15.63;;;12.97;;
13048;SDS011;6591;51.446;5.404;2023-12-14T04:41:36;17.17;;;13.10;;
13048;SDS011;6591;51.446;5.404;2023-12-14T04:44:03;16.03;;;12.40;;
13048;SDS011;6591;51.446;5.404;2023-12-14T04:46:30;16.80;;;12.83;;
13048;SDS011;6591;51.446;5.404;2023-12-14T04:48:57;15.87;;;12.40;;
13048;SDS011;6591;51.446;5.404;2023-12-14T04:51:24;15.90;;;12.43;;
13048;SDS011;6591;51.446;5.404;2023-12-14T04:53:52;16.07;;;12.73;;
13048;SDS011;6591;51.446;5.404;2023-12-14T04:56:19;16.57;;;13.10;;
13048;SDS011;6591;51.446;5.404;2023-12-14T04:58:46;15.67;;;12.77;;
13048;SDS011;6591;51.446;5.404;2023-12-14T05:01:13;14.70;;;12.33;;
13048;SDS011;6591;51.446;5.404;2023-12-14T05:03:41;13.50;;;11.67;;
13048;SDS011;6591;51.446;5.404;2023-12-14T05:06:08;13.63;;;10.93;;
13048;SDS011;6591;51.446;5.404;2023-12-14T05:08:35;17.57;;;14.20;;
13048;SDS011;6591;51.446;5.404;2023-12-14T05:11:02;16.97;;;13.20;;
13048;SDS011;6591;51.446;5.404;2023-12-14T05:13:30;15.87;;;13.80;;
13048;SDS011;6591;51.446;5.404;2023-12-14T05:15:57;16.77;;;14.13;;
13048;SDS011;6591;51.446;5.404;2023-12-14T05:18:24;15.73;;;12.53;;
13048;SDS011;6591;51.446;5.404;2023-12-14T05:20:51;14.60;;;12.43;;
13048;SDS011;6591;51.446;5.404;2023-12-14T05:23:18;16.03;;;12.80;;
13048;SDS011;6591;51.446;5.404;2023-12-14T05:25:46;16.67;;;13.53;;
13048;SDS011;6591;51.446;5.404;2023-12-14T05:28:13;16.43;;;13.23;;
13048;SDS011;6591;51.446;5.404;2023-12-14T05:30:40;19.57;;;15.03;;
13048;SDS011;6591;51.446;5.404;2023-12-14T05:33:07;17.40;;;14.60;;
13048;SDS011;6591;51.446;5.404;2023-12-14T05:35:38;15.90;;;13.17;;
13048;SDS011;6591;51.446;5.404;2023-12-14T05:38:05;18.00;;;14.37;;
13048;SDS011;6591;51.446;5.404;2023-12-14T05:40:32;17.70;;;14.57;;
13048;SDS011;6591;51.446;5.404;2023-12-14T05:42:59;18.07;;;14.03;;
13048;SDS011;6591;51.446;5.404;2023-12-14T05:45:26;17.10;;;13.80;;
13048;SDS011;6591;51.446;5.404;2023-12-14T05:47:53;16.73;;;13.73;;
13048;SDS011;6591;51.446;5.404;2023-12-14T05:50:20;17.67;;;13.13;;
13048;SDS011;6591;51.446;5.404;2023-12-14T05:52:48;16.23;;;13.07;;
13048;SDS011;6591;51.446;5.404;2023-12-14T05:55:17;17.03;;;13.53;;
13048;SDS011;6591;51.446;5.404;2023-12-14T05:57:48;17.53;;;14.03;;
13048;SDS011;6591;51.446;5.404;2023-12-14T06:00:15;17.70;;;13.73;;
13048;SDS011;6591;51.446;5.404;2023-12-14T06:02:44;16.70;;;13.33;;
13048;SDS011;6591;51.446;5.404;2023-12-14T06:05:11;17.70;;;14.27;;
13048;SDS011;6591;51.446;5.404;2023-12-14T06:07:38;16.70;;;13.37;;
13048;SDS011;6591;51.446;5.404;2023-12-14T06:10:05;17.90;;;13.53;;
13048;SDS011;6591;51.446;5.404;2023-12-14T06:12:34;15.33;;;12.87;;
13048;SDS011;6591;51.446;5.404;2023-12-14T06:15:01;16.47;;;14.33;;
13048;SDS011;6591;51.446;5.404;2023-12-14T06:17:28;17.37;;;13.30;;
13048;SDS011;6591;51.446;5.404;2023-12-14T06:19:56;18.50;;;14.50;;
13048;SDS011;6591;51.446;5.404;2023-12-14T06:22:24;16.87;;;13.00;;
13048;SDS011;6591;51.446;5.404;2023-12-14T06:24:51;15.70;;;13.20;;
13048;SDS011;6591;51.446;5.404;2023-12-14T06:27:18;16.20;;;12.93;;
13048;SDS011;6591;51.446;5.404;2023-12-14T06:29:45;14.53;;;12.07;;
13048;SDS011;6591;51.446;5.404;2023-12-14T06:32:12;15.43;;;13.33;;
13048;SDS011;6591;51.446;5.404;2023-12-14T06:34:39;14.53;;;12.10;;
13048;SDS011;6591;51.446;5.404;2023-12-14T06:37:06;19.63;;;14.93;;
13048;SDS011;6591;51.446;5.404;2023-12-14T06:39:33;16.83;;;14.17;;
13048;SDS011;6591;51.446;5.404;2023-12-14T06:42:01;15.93;;;12.93;;
13048;SDS011;6591;51.446;5.404;2023-12-14T06:44:28;16.00;;;13.20;;
13048;SDS011;6591;51.446;5.404;2023-12-14T06:46:57;16.43;;;13.50;;
13048;SDS011;6591;51.446;5.404;2023-12-14T06:49:25;19.57;;;12.83;;
13048;SDS011;6591;51.446;5.404;2023-12-14T06:51:52;15.30;;;12.37;;
13048;SDS011;6591;51.446;5.404;2023-12-14T06:54:19;15.03;;;12.80;;
13048;SDS011;6591;51.446;5.404;2023-12-14T06:56:46;14.33;;;11.97;;
13048;SDS011;6591;51.446;5.404;2023-12-14T06:59:14;14.60;;;12.10;;
13048;SDS011;6591;51.446;5.404;2023-12-14T07:01:42;17.63;;;13.07;;
13048;SDS011;6591;51.446;5.404;2023-12-14T07:04:09;12.57;;;10.67;;
13048;SDS011;6591;51.446;5.404;2023-12-14T07:06:42;15.17;;;12.67;;
13048;SDS011;6591;51.446;5.404;2023-12-14T07:09:16;17.40;;;13.63;;
13048;SDS011;6591;51.446;5.404;2023-12-14T07:11:43;19.33;;;14.30;;
13048;SDS011;6591;51.446;5.404;2023-12-14T07:14:10;24.27;;;14.37;;
13048;SDS011;6591;51.446;5.404;2023-12-14T07:16:38;18.90;;;14.60;;
13048;SDS011;6591;51.446;5.404;2023-12-14T07:19:05;22.50;;;14.57;;
13048;SDS011;6591;51.446;5.404;2023-12-14T07:21:32;22.17;;;15.20;;
13048;SDS011;6591;51.446;5.404;2023-12-14T07:23:59;23.13;;;15.97;;
13048;SDS011;6591;51.446;5.404;2023-12-14T07:26:26;21.33;;;15.40;;
13048;SDS011;6591;51.446;5.404;2023-12-14T07:28:53;26.20;;;17.27;;
13048;SDS011;6591;51.446;5.404;2023-12-14T07:31:21;21.87;;;16.23;;
13048;SDS011;6591;51.446;5.404;2023-12-14T07:33:48;23.90;;;15.63;;
13048;SDS011;6591;51.446;5.404;2023-12-14T07:36:15;25.80;;;16.63;;
13048;SDS011;6591;51.446;5.404;2023-12-14T07:38:42;23.57;;;14.80;;
13048;SDS011;6591;51.446;5.404;2023-12-14T07:41:09;21.83;;;15.23;;
13048;SDS011;6591;51.446;5.404;2023-12-14T07:43:36;22.00;;;15.47;;
13048;SDS011;6591;51.446;5.404;2023-12-14T07:46:03;25.57;;;16.23;;
13048;SDS011;6591;51.446;5.404;2023-12-14T07:48:30;22.13;;;15.07;;
13048;SDS011;6591;51.446;5.404;2023-12-14T07:50:57;21.07;;;15.13;;
13048;SDS011;6591;51.446;5.404;2023-12-14T07:53:24;22.90;;;14.50;;
13048;SDS011;6591;51.446;5.404;2023-12-14T07:55:52;21.20;;;14.07;;
13048;SDS011;6591;51.446;5.404;2023-12-14T07:58:19;19.97;;;14.63;;
13048;SDS011;6591;51.446;5.404;2023-12-14T08:00:46;20.47;;;13.80;;
13048;SDS011;6591;51.446;5.404;2023-12-14T08:03:13;23.07;;;14.67;;
13048;SDS011;6591;51.446;5.404;2023-12-14T08:05:40;21.87;;;13.73;;
13048;SDS011;6591;51.446;5.404;2023-12-14T08:08:07;18.17;;;13.27;;
13048;SDS011;6591;51.446;5.404;2023-12-14T08:10:34;19.27;;;11.73;;
13048;SDS011;6591;51.446;5.404;2023-12-14T08:13:01;18.40;;;12.13;;
13048;SDS011;6591;51.446;5.404;2023-12-14T08:15:28;18.07;;;11.97;;
13048;SDS011;6591;51.446;5.404;2023-12-14T08:17:56;21.57;;;12.50;;
13048;SDS011;6591;51.446;5.404;2023-12-14T08:20:23;18.87;;;12.00;;
13048;SDS011;6591;51.446;5.404;2023-12-14T08:22:50;17.13;;;11.90;;
13048;SDS011;6591;51.446;5.404;2023-12-14T08:25:18;17.57;;;12.27;;
13048;SDS011;6591;51.446;5.404;2023-12-14T08:27:45;18.03;;;11.93;;
13048;SDS011;6591;51.446;5.404;2023-12-14T08:30:13;18.20;;;12.33;;
13048;SDS011;6591;51.446;5.404;2023-12-14T08:32:40;18.60;;;12.13;;
13048;SDS011;6591;51.446;5.404;2023-12-14T08:35:08;19.70;;;11.43;;
13048;SDS011;6591;51.446;5.404;2023-12-14T08:37:35;13.00;;;10.40;;
13048;SDS011;6591;51.446;5.404;2023-12-14T08:40:04;15.23;;;10.37;;
13048;SDS011;6591;51.446;5.404;2023-12-14T08:42:32;13.60;;;10.67;;
13048;SDS011;6591;51.446;5.404;2023-12-14T08:45:01;17.27;;;10.83;;
13048;SDS011;6591;51.446;5.404;2023-12-14T08:47:28;12.37;;;10.03;;
13048;SDS011;6591;51.446;5.404;2023-12-14T08:49:55;16.30;;;11.70;;
13048;SDS011;6591;51.446;5.404;2023-12-14T08:52:22;13.63;;;10.97;;
13048;SDS011;6591;51.446;5.404;2023-12-14T08:54:49;12.80;;;10.20;;
13048;SDS011;6591;51.446;5.404;2023-12-14T08:57:16;12.37;;;10.40;;
13048;SDS011;6591;51.446;5.404;2023-12-14T08:59:43;13.80;;;10.50;;
13048;SDS011;6591;51.446;5.404;2023-12-14T09:02:10;12.90;;;10.27;;
13048;SDS011;6591;51.446;5.404;2023-12-14T09:04:38;13.33;;;10.30;;
13048;SDS011;6591;51.446;5.404;2023-12-14T09:07:05;12.37;;;10.30;;
13048;SDS011;6591;51.446;5.404;2023-12-14T09:09:33;13.57;;;10.50;;
13048;SDS011;6591;51.446;5.404;2023-12-14T09:12:00;15.50;;;10.40;;
13048;SDS011;6591;51.446;5.404;2023-12-14T09:14:27;11.17;;;9.40;;
13048;SDS011;6591;51.446;5.404;2023-12-14T09:16:54;10.90;;;9.77;;
13048;SDS011;6591;51.446;5.404;2023-12-14T09:19:22;11.50;;;9.90;;
13048;SDS011;6591;51.446;5.404;2023-12-14T09:21:49;15.23;;;9.63;;
13048;SDS011;6591;51.446;5.404;2023-12-14T09:24:16;11.33;;;9.13;;
13048;SDS011;6591;51.446;5.404;2023-12-14T09:26:43;13.07;;;10.17;;
13048;SDS011;6591;51.446;5.404;2023-12-14T09:29:11;13.17;;;9.63;;
13048;SDS011;6591;51.446;5.404;2023-12-14T09:31:42;10.57;;;9.47;;
13048;SDS011;6591;51.446;5.404;2023-12-14T09:34:11;11.30;;;9.40;;
13048;SDS011;6591;51.446;5.404;2023-12-14T09:36:39;11.33;;;9.57;;
13048;SDS011;6591;51.446;5.404;2023-12-14T09:39:06;13.27;;;9.37;;
13048;SDS011;6591;51.446;5.404;2023-12-14T09:41:37;11.83;;;9.63;;
13048;SDS011;6591;51.446;5.404;2023-12-14T09:44:05;10.17;;;9.00;;
13048;SDS011;6591;51.446;5.404;2023-12-14T09:46:36;10.73;;;9.60;;
13048;SDS011;6591;51.446;5.404;2023-12-14T09:49:05;10.57;;;8.80;;
13048;SDS011;6591;51.446;5.404;2023-12-14T09:51:34;10.60;;;8.33;;
13048;SDS011;6591;51.446;5.404;2023-12-14T09:54:02;10.47;;;9.37;;
13048;SDS011;6591;51.446;5.404;2023-12-14T09:56:29;11.17;;;8.77;;
13048;SDS011;6591;51.446;5.404;2023-12-14T09:58:57;11.00;;;9.10;;
13048;SDS011;6591;51.446;5.404;2023-12-14T10:01:27;11.80;;;8.53;;
13048;SDS011;6591;51.446;5.404;2023-12-14T10:04:10;10.97;;;9.03;;
13048;SDS011;6591;51.446;5.404;2023-12-14T10:06:41;10.70;;;9.40;;
13048;SDS011;6591;51.446;5.404;2023-12-14T10:09:10;11.90;;;8.33;;
13048;SDS011;6591;51.446;5.404;2023-12-14T10:11:41;10.57;;;8.40;;
13048;SDS011;6591;51.446;5.404;2023-12-14T10:14:19;10.43;;;8.80;;
13048;SDS011;6591;51.446;5.404;2023-12-14T10:16:51;9.90;;;8.37;;
13048;SDS011;6591;51.446;5.404;2023-12-14T10:19:28;10.00;;;8.23;;
13048;SDS011;6591;51.446;5.404;2023-12-14T10:21:55;12.00;;;9.03;;
13048;SDS011;6591;51.446;5.404;2023-12-14T10:24:22;11.13;;;8.93;;
13048;SDS011;6591;51.446;5.404;2023-12-14T10:26:49;10.50;;;8.40;;
13048;SDS011;6591;51.446;5.404;2023-12-14T10:29:17;10.47;;;8.13;;
13048;SDS011;6591;51.446;5.404;2023-12-14T10:31:44;9.33;;;7.97;;
13048;SDS011;6591;51.446;5.404;2023-12-14T10:34:12;13.27;;;9.47;;
13048;SDS011;6591;51.446;5.404;2023-12-14T10:36:40;12.00;;;9.53;;
13048;SDS011;6591;51.446;5.404;2023-12-14T10:39:11;13.27;;;10.73;;
13048;SDS011;6591;51.446;5.404;2023-12-14T10:41:48;12.23;;;10.13;;
13048;SDS011;6591;51.446;5.404;2023-12-14T10:44:29;11.17;;;9.77;;
13048;SDS011;6591;51.446;5.404;2023-12-14T10:47:22;11.50;;;8.70;;
13048;SDS011;6591;51.446;5.404;2023-12-14T10:49:50;11.33;;;8.93;;
13048;SDS011;6591;51.446;5.404;2023-12-14T10:52:18;10.43;;;9.37;;
13048;SDS011;6591;51.446;5.404;2023-12-14T10:54:50;13.23;;;9.43;;
13048;SDS011;6591;51.446;5.404;2023-12-14T10:57:28;10.03;;;8.90;;
13048;SDS011;6591;51.446;5.404;2023-12-14T10:59:58;11.70;;;9.10;;
13048;SDS011;6591;51.446;5.404;2023-12-14T11:02:27;9.70;;;8.23;;
13048;SDS011;6591;51.446;5.404;2023-12-14T11:04:54;11.63;;;8.73;;
13048;SDS011;6591;51.446;5.404;2023-12-14T11:07:42;10.87;;;8.63;;
13048;SDS011;6591;51.446;5.404;2023-12-14T11:10:11;10.47;;;8.40;;
13048;SDS011;6591;51.446;5.404;2023-12-14T11:12:38;9.93;;;8.50;;
13048;SDS011;6591;51.446;5.404;2023-12-14T11:15:33;9.37;;;8.37;;
13048;SDS011;6591;51.446;5.404;2023-12-14T11:23:32;12.33;;;8.93;;
13048;SDS011;6591;51.446;5.404;2023-12-14T11:26:09;10.97;;;8.47;;
13048;SDS011;6591;51.446;5.404;2023-12-14T11:28:38;8.07;;;7.27;;
13048;SDS011;6591;51.446;5.404;2023-12-14T11:31:10;9.10;;;8.20;;
13048;SDS011;6591;51.446;5.404;2023-12-14T11:33:39;9.70;;;8.47;;
13048;SDS011;6591;51.446;5.404;2023-12-14T11:36:12;9.93;;;8.33;;
13048;SDS011;6591;51.446;5.404;2023-12-14T11:38:41;10.23;;;9.00;;
13048;SDS011;6591;51.446;5.404;2023-12-14T11:41:09;10.30;;;8.20;;
13048;SDS011;6591;51.446;5.404;2023-12-14T11:43:40;10.10;;;9.00;;
13048;SDS011;6591;51.446;5.404;2023-12-14T11:46:11;10.93;;;8.17;;
13048;SDS011;6591;51.446;5.404;2023-12-14T11:48:40;11.03;;;8.43;;
13048;SDS011;6591;51.446;5.404;2023-12-14T11:51:10;9.07;;;7.63;;
13048;SDS011;6591;51.446;5.404;2023-12-14T11:53:38;8.77;;;7.33;;
13048;SDS011;6591;51.446;5.404;2023-12-14T11:56:06;9.93;;;7.73;;
13048;SDS011;6591;51.446;5.404;2023-12-14T11:58:34;11.53;;;8.00;;
13048;SDS011;6591;51.446;5.404;2023-12-14T12:01:14;9.97;;;8.10;;
13048;SDS011;6591;51.446;5.404;2023-12-14T12:03:43;9.23;;;7.53;;
13048;SDS011;6591;51.446;5.404;2023-12-14T12:06:22;8.57;;;7.23;;
13048;SDS011;6591;51.446;5.404;2023-12-14T12:09:02;8.23;;;7.23;;
13048;SDS011;6591;51.446;5.404;2023-12-14T12:11:34;9.43;;;7.73;;
13048;SDS011;6591;51.446;5.404;2023-12-14T12:14:02;8.17;;;7.33;;
13048;SDS011;6591;51.446;5.404;2023-12-14T12:16:32;8.70;;;7.40;;
13048;SDS011;6591;51.446;5.404;2023-12-14T12:19:02;8.67;;;7.30;;
13048;SDS011;6591;51.446;5.404;2023-12-14T12:21:30;8.63;;;7.10;;
13048;SDS011;6591;51.446;5.404;2023-12-14T12:23:57;9.10;;;7.27;;
13048;SDS011;6591;51.446;5.404;2023-12-14T12:26:24;9.10;;;7.07;;
13048;SDS011;6591;51.446;5.404;2023-12-14T12:28:52;8.20;;;7.40;;
13048;SDS011;6591;51.446;5.404;2023-12-14T12:31:19;10.73;;;7.23;;
13048;SDS011;6591;51.446;5.404;2023-12-14T12:33:46;7.57;;;6.67;;
13048;SDS011;6591;51.446;5.404;2023-12-14T12:36:13;7.00;;;6.30;;
13048;SDS011;6591;51.446;5.404;2023-12-14T12:38:41;7.13;;;6.40;;
13048;SDS011;6591;51.446;5.404;2023-12-14T12:41:08;7.43;;;6.73;;
13048;SDS011;6591;51.446;5.404;2023-12-14T12:43:35;7.77;;;6.30;;
13048;SDS011;6591;51.446;5.404;2023-12-14T12:46:02;7.63;;;6.83;;
13048;SDS011;6591;51.446;5.404;2023-12-14T12:48:30;7.30;;;6.60;;
13048;SDS011;6591;51.446;5.404;2023-12-14T12:50:57;7.00;;;6.30;;
13048;SDS011;6591;51.446;5.404;2023-12-14T12:53:24;8.07;;;6.80;;
13048;SDS011;6591;51.446;5.404;2023-12-14T12:55:52;7.90;;;7.10;;
13048;SDS011;6591;51.446;5.404;2023-12-14T12:58:20;8.23;;;7.33;;
13048;SDS011;6591;51.446;5.404;2023-12-14T13:00:47;8.90;;;7.73;;
13048;SDS011;6591;51.446;5.404;2023-12-14T13:03:14;10.90;;;7.03;;
13048;SDS011;6591;51.446;5.404;2023-12-14T13:05:41;8.83;;;6.67;;
13048;SDS011;6591;51.446;5.404;2023-12-14T13:08:09;7.83;;;6.80;;
13048;SDS011;6591;51.446;5.404;2023-12-14T13:10:36;8.60;;;6.97;;
13048;SDS011;6591;51.446;5.404;2023-12-14T13:13:05;8.30;;;7.10;;
13048;SDS011;6591;51.446;5.404;2023-12-14T13:15:33;10.10;;;8.07;;
13048;SDS011;6591;51.446;5.404;2023-12-14T13:18:01;8.57;;;7.60;;
13048;SDS011;6591;51.446;5.404;2023-12-14T13:20:29;8.67;;;7.77;;
13048;SDS011;6591;51.446;5.404;2023-12-14T13:22:56;8.87;;;7.97;;
13048;SDS011;6591;51.446;5.404;2023-12-14T13:25:23;9.10;;;8.20;;
13048;SDS011;6591;51.446;5.404;2023-12-14T13:27:52;8.87;;;7.23;;
13048;SDS011;6591;51.446;5.404;2023-12-14T13:30:19;10.00;;;7.70;;
13048;SDS011;6591;51.446;5.404;2023-12-14T13:32:49;9.43;;;7.33;;
13048;SDS011;6591;51.446;5.404;2023-12-14T13:35:16;9.07;;;8.10;;
13048;SDS011;6591;51.446;5.404;2023-12-14T13:37:43;8.80;;;7.70;;
13048;SDS011;6591;51.446;5.404;2023-12-14T13:40:10;8.67;;;7.77;;
13048;SDS011;6591;51.446;5.404;2023-12-14T13:42:40;8.73;;;7.83;;
13048;SDS011;6591;51.446;5.404;2023-12-14T13:45:25;8.90;;;7.77;;
13048;SDS011;6591;51.446;5.404;2023-12-14T13:47:54;10.43;;;7.73;;
13048;SDS011;6591;51.446;5.404;2023-12-14T13:50:21;10.10;;;8.00;;
13048;SDS011;6591;51.446;5.404;2023-12-14T13:52:48;9.07;;;8.17;;
13048;SDS011;6591;51.446;5.404;2023-12-14T13:55:15;10.50;;;8.33;;
13048;SDS011;6591;51.446;5.404;2023-12-14T13:57:42;9.33;;;8.33;;
13048;SDS011;6591;51.446;5.404;2023-12-14T14:00:09;8.83;;;7.90;;
13048;SDS011;6591;51.446;5.404;2023-12-14T14:02:38;11.50;;;8.60;;
13048;SDS011;6591;51.446;5.404;2023-12-14T14:05:05;9.73;;;8.10;;
13048;SDS011;6591;51.446;5.404;2023-12-14T14:07:32;8.80;;;7.90;;
13048;SDS011;6591;51.446;5.404;2023-12-14T14:09:59;9.20;;;7.90;;
13048;SDS011;6591;51.446;5.404;2023-12-14T14:12:26;8.97;;;7.80;;
13048;SDS011;6591;51.446;5.404;2023-12-14T14:14:53;8.57;;;7.20;;
13048;SDS011;6591;51.446;5.404;2023-12-14T14:17:20;8.87;;;7.03;;
13048;SDS011;6591;51.446;5.404;2023-12-14T14:19:47;9.03;;;7.90;;
13048;SDS011;6591;51.446;5.404;2023-12-14T14:22:14;8.13;;;7.33;;
13048;SDS011;6591;51.446;5.404;2023-12-14T14:24:41;9.60;;;7.60;;
13048;SDS011;6591;51.446;5.404;2023-12-14T14:27:08;10.67;;;7.50;;
13048;SDS011;6591;51.446;5.404;2023-12-14T14:29:36;8.30;;;7.40;;
13048;SDS011;6591;51.446;5.404;2023-12-14T14:32:03;8.77;;;7.13;;
13048;SDS011;6591;51.446;5.404;2023-12-14T14:34:30;8.63;;;7.57;;
13048;SDS011;6591;51.446;5.404;2023-12-14T14:36:57;9.60;;;7.73;;
13048;SDS011;6591;51.446;5.404;2023-12-14T14:39:24;10.33;;;8.60;;
13048;SDS011;6591;51.446;5.404;2023-12-14T14:41:51;9.10;;;7.77;;
13048;SDS011;6591;51.446;5.404;2023-12-14T14:44:19;8.50;;;7.57;;
13048;SDS011;6591;51.446;5.404;2023-12-14T14:46:47;8.60;;;7.63;;
13048;SDS011;6591;51.446;5.404;2023-12-14T14:49:14;9.73;;;8.03;;
13048;SDS011;6591;51.446;5.404;2023-12-14T14:51:41;9.40;;;7.70;;
13048;SDS011;6591;51.446;5.404;2023-12-14T14:54:08;9.03;;;7.90;;
13048;SDS011;6591;51.446;5.404;2023-12-14T14:56:35;9.13;;;7.70;;
13048;SDS011;6591;51.446;5.404;2023-12-14T14:59:02;10.47;;;7.90;;